Agency Village, South Dakota
Current Conditions -  °F | °C
As of 11:36 AM on Wednesday 26 Nov 2014 (Local Time) from KETH Reporting Station
Broken Clouds Broken Clouds  
Wind Chill: -12°   Ceiling: 900
Heat Index:   Visibility: 7mi
Dew Point:   Wind: 18mph
Humidity: 79%   Direction: 320°NW
Pressure: 30.35"   Gusts: 24mph
Location:  45.7041°N, 96.9842°W
Report Text: KETH 261736Z AUTO 32016G21KT 7SM BKN009 M14/M17 A3035 RMK AO2
Loading
Personal Weather Stations






























Interactive Weather Map New forecast layout! Learn more

10-Day Weather Forecast

Advertisements
Track Severe Weather on mobile